Time;durP1;ratioP1;P1;durP2;ratioP2;P2;SDS_P1;SDS_P2;PMS_P1;PMS_P2;Temp;Humidity;BMP_temperature;BMP_pressure;BME280_temperature;BME280_humidity;BME280_pressure;Samples;Min_cycle;Max_cycle;Signal;HPM_P1;HPM_P2
2024/02/17 00:00:13;0.00;0.00;0.62;0.00;0.00;0.62;6.17;4.70;;;24.00;29.10;;;;;;2252357;61;20789;-68
2024/02/17 00:02:57;0.00;0.00;0.62;0.00;0.00;0.62;6.00;4.97;;;24.00;29.10;;;;;;2252508;61;20463;-69
2024/02/17 00:05:42;0.00;0.00;0.62;0.00;0.00;0.62;6.10;4.70;;;24.00;29.10;;;;;;2253094;61;20447;-69
2024/02/17 00:08:27;0.00;0.00;0.62;0.00;0.00;0.62;4.93;4.30;;;24.00;29.10;;;;;;2252396;61;20414;-69
2024/02/17 00:11:13;0.00;0.00;0.62;0.00;0.00;0.62;8.07;5.10;;;24.00;29.10;;;;;;2252829;61;20370;-69
2024/02/17 00:13:57;0.00;0.00;0.62;0.00;0.00;0.62;6.10;4.43;;;24.00;29.10;;;;;;2253225;61;20506;-68
2024/02/17 00:16:42;0.00;0.00;0.62;0.00;0.00;0.62;6.43;5.07;;;24.00;29.10;;;;;;2253777;61;20398;-68
2024/02/17 00:19:26;0.00;0.00;0.62;0.00;0.00;0.62;6.03;5.10;;;24.00;29.10;;;;;;2254085;61;20391;-68
2024/02/17 00:22:11;0.00;0.00;0.62;0.00;0.00;0.62;6.20;5.00;;;24.00;29.60;;;;;;2253527;61;20766;-67
2024/02/17 00:24:55;0.00;0.00;0.62;0.00;0.00;0.62;6.60;4.93;;;24.00;29.10;;;;;;2249658;61;20386;-70
2024/02/17 00:27:41;0.00;0.00;0.62;0.00;0.00;0.62;5.40;4.33;;;24.00;29.10;;;;;;2252453;61;20463;-68
2024/02/17 00:30:26;0.00;0.00;0.62;0.00;0.00;0.62;7.00;5.00;;;24.00;29.10;;;;;;2258304;55;20816;-67
2024/02/17 00:33:11;0.00;0.00;0.62;0.00;0.00;0.62;5.13;3.97;;;24.00;29.10;;;;;;2264186;61;20782;-67
2024/02/17 00:35:56;0.00;0.00;0.62;0.00;0.00;0.62;4.40;3.77;;;24.00;29.10;;;;;;2263892;61;20368;-67
2024/02/17 00:38:41;0.00;0.00;0.62;0.00;0.00;0.62;5.87;4.20;;;24.00;29.10;;;;;;2264103;61;20440;-67
2024/02/17 00:41:25;0.00;0.00;0.62;0.00;0.00;0.62;5.83;4.60;;;24.00;29.10;;;;;;2264378;61;20387;-66
2024/02/17 00:44:12;0.00;0.00;0.62;0.00;0.00;0.62;5.47;4.33;;;24.00;29.10;;;;;;2263674;61;20941;-68
2024/02/17 00:46:57;0.00;0.00;0.62;0.00;0.00;0.62;5.30;4.53;;;23.90;29.00;;;;;;2265672;61;20384;-67
2024/02/17 00:49:41;0.00;0.00;0.62;0.00;0.00;0.62;6.00;4.43;;;24.00;29.10;;;;;;2263994;61;20360;-67
2024/02/17 00:52:26;0.00;0.00;0.62;0.00;0.00;0.62;5.50;4.30;;;24.00;29.10;;;;;;2263547;61;20368;-67
2024/02/17 00:55:11;0.00;0.00;0.62;0.00;0.00;0.62;4.97;3.97;;;23.90;29.00;;;;;;2263655;61;20414;-68
2024/02/17 00:57:55;0.00;0.00;0.62;0.00;0.00;0.62;4.40;3.57;;;24.00;29.10;;;;;;2263683;61;20367;-67
2024/02/17 01:00:41;0.00;0.00;0.62;0.00;0.00;0.62;5.30;4.00;;;23.90;29.00;;;;;;2263722;61;20934;-66
2024/02/17 01:03:26;0.00;0.00;0.62;0.00;0.00;0.62;5.70;4.30;;;24.00;29.10;;;;;;2264093;61;20512;-67
2024/02/17 01:06:10;0.00;0.00;0.62;0.00;0.00;0.62;5.40;4.07;;;24.00;29.10;;;;;;2263568;61;20363;-67
2024/02/17 01:08:55;0.00;0.00;0.62;0.00;0.00;0.62;6.30;4.90;;;23.90;29.00;;;;;;2263250;61;20582;-67
2024/02/17 01:11:40;0.00;0.00;0.62;0.00;0.00;0.62;6.03;4.10;;;24.00;29.10;;;;;;2263840;61;20418;-67
2024/02/17 01:14:24;0.00;0.00;0.62;0.00;0.00;0.62;5.33;3.83;;;23.90;29.00;;;;;;2263779;61;20955;-66
2024/02/17 01:17:10;0.00;0.00;0.62;0.00;0.00;0.62;5.50;4.30;;;23.90;29.00;;;;;;2263502;61;20885;-67
2024/02/17 01:19:55;0.00;0.00;0.62;0.00;0.00;0.62;5.33;3.93;;;23.90;29.00;;;;;;2263710;61;20372;-67
2024/02/17 01:22:40;0.00;0.00;0.62;0.00;0.00;0.62;4.17;3.70;;;23.90;29.00;;;;;;2263668;61;20382;-67
2024/02/17 01:25:25;0.00;0.00;0.62;0.00;0.00;0.62;6.00;4.40;;;24.00;29.10;;;;;;2263605;61;20361;-68
2024/02/17 01:28:09;0.00;0.00;0.62;0.00;0.00;0.62;5.77;4.23;;;23.90;29.00;;;;;;2263115;61;20783;-68
2024/02/17 01:30:54;0.00;0.00;0.62;0.00;0.00;0.62;5.90;5.13;;;23.90;29.00;;;;;;2263242;61;20992;-68
2024/02/17 01:33:40;0.00;0.00;0.62;0.00;0.00;0.62;6.60;5.00;;;23.90;29.00;;;;;;2263726;61;20414;-66
2024/02/17 01:36:25;0.00;0.00;0.62;0.00;0.00;0.62;5.43;4.60;;;23.90;29.00;;;;;;2263396;61;20364;-66
2024/02/17 01:39:10;0.00;0.00;0.62;0.00;0.00;0.62;6.30;4.90;;;24.00;29.10;;;;;;2263378;61;20426;-66
2024/02/17 01:41:55;0.00;0.00;0.62;0.00;0.00;0.62;5.80;4.70;;;23.90;29.00;;;;;;2263634;61;20392;-67
2024/02/17 01:44:40;0.00;0.00;0.62;0.00;0.00;0.62;5.90;4.40;;;23.90;29.00;;;;;;2262874;61;20387;-67
2024/02/17 01:47:25;0.00;0.00;0.62;0.00;0.00;0.62;5.30;4.43;;;23.90;29.00;;;;;;2263508;61;20368;-67
2024/02/17 01:50:11;0.00;0.00;0.62;0.00;0.00;0.62;5.10;4.60;;;23.90;29.00;;;;;;2263469;61;20380;-68
2024/02/17 01:52:58;0.00;0.00;0.62;0.00;0.00;0.62;4.63;3.90;;;23.90;29.00;;;;;;2263206;61;20421;-67
2024/02/17 01:55:43;0.00;0.00;0.62;0.00;0.00;0.62;4.27;3.87;;;23.90;29.60;;;;;;2263743;61;20886;-67
2024/02/17 01:58:28;0.00;0.00;0.62;0.00;0.00;0.62;5.53;4.37;;;23.90;29.00;;;;;;2263484;61;20363;-67
2024/02/17 02:01:14;0.00;0.00;0.62;0.00;0.00;0.62;4.73;3.97;;;23.90;29.00;;;;;;2263295;61;20453;-67
2024/02/17 02:03:59;0.00;0.00;0.62;0.00;0.00;0.62;6.73;4.57;;;23.90;29.00;;;;;;2262994;61;20392;-67
2024/02/17 02:06:45;0.00;0.00;0.62;0.00;0.00;0.62;4.80;4.10;;;23.90;29.00;;;;;;2263960;61;20380;-67
2024/02/17 02:09:29;0.00;0.00;0.62;0.00;0.00;0.62;4.27;3.67;;;23.90;29.00;;;;;;2264244;61;20348;-66
2024/02/17 02:12:14;0.00;0.00;0.62;0.00;0.00;0.62;5.93;3.80;;;23.90;29.60;;;;;;2264277;61;20402;-67
2024/02/17 02:15:04;0.00;0.00;0.62;0.00;0.00;0.62;6.07;4.60;;;23.90;29.00;;;;;;2263980;61;20875;-68
2024/02/17 02:17:49;0.00;0.00;0.62;0.00;0.00;0.62;4.63;3.63;;;23.90;29.00;;;;;;2264330;61;20795;-67
2024/02/17 02:20:34;0.00;0.00;0.62;0.00;0.00;0.62;4.77;3.93;;;23.90;29.00;;;;;;2264166;61;20388;-67
2024/02/17 02:23:20;0.00;0.00;0.62;0.00;0.00;0.62;4.80;3.60;;;23.90;29.00;;;;;;2263854;61;20818;-66
2024/02/17 02:26:08;0.00;0.00;0.62;0.00;0.00;0.62;4.73;3.43;;;23.90;29.50;;;;;;2263955;61;20372;-67
2024/02/17 02:28:52;0.00;0.00;0.62;0.00;0.00;0.62;4.30;3.20;;;23.90;29.00;;;;;;2264104;61;20368;-67
2024/02/17 02:31:37;0.00;0.00;0.62;0.00;0.00;0.62;4.80;3.97;;;23.90;29.00;;;;;;2264038;61;20438;-67
2024/02/17 02:34:22;0.00;0.00;0.62;0.00;0.00;0.62;3.60;3.10;;;23.90;29.00;;;;;;2261911;61;20422;-67
2024/02/17 02:37:07;0.00;0.00;0.62;0.00;0.00;0.62;5.33;3.90;;;23.90;29.00;;;;;;2261670;61;20367;-67
2024/02/17 02:39:52;0.00;0.00;0.62;0.00;0.00;0.62;4.80;3.77;;;23.90;29.00;;;;;;2262495;61;20360;-66
2024/02/17 02:42:38;0.00;0.00;0.62;0.00;0.00;0.62;4.70;4.10;;;23.90;29.00;;;;;;2258891;58;20411;-67
2024/02/17 02:45:23;0.00;0.00;0.62;0.00;0.00;0.62;4.27;3.70;;;23.90;29.00;;;;;;2259562;61;20463;-67
2024/02/17 02:48:08;0.00;0.00;0.62;0.00;0.00;0.62;4.37;3.47;;;23.90;29.00;;;;;;2260044;61;20361;-67
2024/02/17 02:50:52;0.00;0.00;0.62;0.00;0.00;0.62;4.20;3.77;;;23.90;29.40;;;;;;2260091;61;20405;-66
2024/02/17 02:53:37;0.00;0.00;0.62;0.00;0.00;0.62;5.00;3.50;;;23.90;29.00;;;;;;2259892;61;20357;-66
2024/02/17 02:56:22;0.00;0.00;0.62;0.00;0.00;0.62;3.73;3.17;;;23.90;29.00;;;;;;2260052;61;20365;-67
2024/02/17 02:59:08;0.00;0.00;0.62;0.00;0.00;0.62;4.23;3.53;;;23.90;29.00;;;;;;2259902;61;20410;-66
2024/02/17 03:01:53;0.00;0.00;0.62;0.00;0.00;0.62;5.60;3.57;;;23.90;29.00;;;;;;2260343;61;20435;-65
2024/02/17 03:04:37;0.00;0.00;0.62;0.00;0.00;0.62;4.10;3.23;;;23.90;29.00;;;;;;2259827;61;20404;-68
2024/02/17 03:07:22;0.00;0.00;0.62;0.00;0.00;0.62;4.10;3.40;;;23.90;29.00;;;;;;2259899;61;20419;-67
2024/02/17 03:10:08;0.00;0.00;0.62;0.00;0.00;0.62;5.23;3.53;;;23.90;29.00;;;;;;2260182;61;20423;-66
2024/02/17 03:12:52;0.00;0.00;0.62;0.00;0.00;0.62;4.70;3.80;;;23.90;29.00;;;;;;2259896;61;20414;-66
2024/02/17 03:15:38;0.00;0.00;0.62;0.00;0.00;0.62;4.13;3.20;;;23.90;29.00;;;;;;2259681;61;20462;-66
2024/02/17 03:18:23;0.00;0.00;0.62;0.00;0.00;0.62;3.60;3.10;;;23.90;29.00;;;;;;2259918;61;20468;-66
2024/02/17 03:21:07;0.00;0.00;0.62;0.00;0.00;0.62;3.90;2.97;;;23.90;29.00;;;;;;2259829;61;20380;-66
2024/02/17 03:23:52;0.00;0.00;0.62;0.00;0.00;0.62;5.10;3.70;;;23.90;29.00;;;;;;2259783;61;20381;-67
2024/02/17 03:26:37;0.00;0.00;0.62;0.00;0.00;0.62;4.10;3.10;;;23.90;29.00;;;;;;2259589;61;20895;-66
2024/02/17 03:29:22;0.00;0.00;0.62;0.00;0.00;0.62;4.17;3.13;;;23.90;29.00;;;;;;2259234;61;20530;-66
2024/02/17 03:32:08;0.00;0.00;0.62;0.00;0.00;0.62;3.60;3.00;;;23.90;29.00;;;;;;2259965;61;20831;-66
2024/02/17 03:34:53;0.00;0.00;0.62;0.00;0.00;0.62;3.27;2.70;;;23.90;29.00;;;;;;2259745;61;20365;-66
2024/02/17 03:37:37;0.00;0.00;0.62;0.00;0.00;0.62;4.23;2.80;;;23.80;28.90;;;;;;2259660;61;20364;-67
2024/02/17 03:40:22;0.00;0.00;0.62;0.00;0.00;0.62;4.10;2.63;;;23.80;28.90;;;;;;2263157;61;20419;-67
2024/02/17 03:43:07;0.00;0.00;0.62;0.00;0.00;0.62;3.33;2.80;;;23.90;29.00;;;;;;2263695;61;20383;-67
2024/02/17 03:45:51;0.00;0.00;0.62;0.00;0.00;0.62;3.97;3.27;;;23.90;29.00;;;;;;2263913;61;20399;-67
2024/02/17 03:48:37;0.00;0.00;0.62;0.00;0.00;0.62;3.10;2.53;;;23.90;29.00;;;;;;2263776;61;20368;-67
2024/02/17 03:51:22;0.00;0.00;0.62;0.00;0.00;0.62;2.87;2.23;;;23.80;28.90;;;;;;2263791;61;20411;-67
2024/02/17 03:54:07;0.00;0.00;0.62;0.00;0.00;0.62;4.33;2.37;;;23.80;28.90;;;;;;2264132;61;20458;-67
2024/02/17 03:56:52;0.00;0.00;0.62;0.00;0.00;0.62;3.27;2.80;;;23.90;29.60;;;;;;2263747;61;20870;-66
2024/02/17 03:59:36;0.00;0.00;0.62;0.00;0.00;0.62;4.37;2.73;;;23.90;29.00;;;;;;2263631;61;20384;-67
2024/02/17 04:02:21;0.00;0.00;0.62;0.00;0.00;0.62;3.90;2.63;;;23.80;28.90;;;;;;2264173;61;20419;-66
2024/02/17 04:05:08;0.00;0.00;0.62;0.00;0.00;0.62;4.07;2.80;;;23.80;28.90;;;;;;2263501;61;20480;-68
2024/02/17 04:07:53;0.00;0.00;0.62;0.00;0.00;0.62;3.30;2.80;;;23.80;28.90;;;;;;2263937;61;20425;-68
2024/02/17 04:10:38;0.00;0.00;0.62;0.00;0.00;0.62;3.07;2.33;;;23.80;28.90;;;;;;2263763;61;20426;-68
2024/02/17 04:13:22;0.00;0.00;0.62;0.00;0.00;0.62;3.10;2.40;;;23.80;28.90;;;;;;2263764;61;20363;-68
2024/02/17 04:16:09;0.00;0.00;0.62;0.00;0.00;0.62;3.13;2.23;;;23.80;28.90;;;;;;2263735;61;20414;-67
2024/02/17 04:18:54;0.00;0.00;0.62;0.00;0.00;0.62;3.23;2.30;;;23.80;28.90;;;;;;2263800;61;20774;-67
2024/02/17 04:21:40;0.00;0.00;0.62;0.00;0.00;0.62;2.70;2.10;;;23.80;28.90;;;;;;2263384;61;20787;-67
2024/02/17 04:24:24;0.00;0.00;0.62;0.00;0.00;0.62;4.97;2.63;;;23.80;28.90;;;;;;2263897;61;20410;-66
2024/02/17 04:27:09;0.00;0.00;0.62;0.00;0.00;0.62;2.93;2.43;;;23.80;28.90;;;;;;2264100;61;20414;-68
2024/02/17 04:29:54;0.00;0.00;0.62;0.00;0.00;0.62;3.43;2.50;;;23.80;28.90;;;;;;2264182;61;20430;-68
2024/02/17 04:32:39;0.00;0.00;0.62;0.00;0.00;0.62;2.47;2.13;;;23.80;28.90;;;;;;2264004;61;20905;-67
2024/02/17 04:35:23;0.00;0.00;0.62;0.00;0.00;0.62;3.23;2.40;;;23.80;28.90;;;;;;2264121;61;20360;-67
2024/02/17 04:38:10;0.00;0.00;0.62;0.00;0.00;0.62;2.80;2.50;;;23.80;28.90;;;;;;2264442;61;20360;-66
2024/02/17 04:40:55;0.00;0.00;0.62;0.00;0.00;0.62;4.90;2.57;;;23.80;28.90;;;;;;2263323;61;20441;-67
2024/02/17 04:43:40;0.00;0.00;0.62;0.00;0.00;0.62;2.80;2.30;;;23.80;29.50;;;;;;2264160;61;20461;-67
2024/02/17 04:46:24;0.00;0.00;0.62;0.00;0.00;0.62;3.60;2.30;;;23.80;28.90;;;;;;2264270;61;20368;-68
2024/02/17 04:49:09;0.00;0.00;0.62;0.00;0.00;0.62;3.17;2.53;;;23.80;29.00;;;;;;2263820;61;20962;-67
2024/02/17 04:51:54;0.00;0.00;0.62;0.00;0.00;0.62;3.13;2.50;;;23.80;28.90;;;;;;2263896;61;20383;-67
2024/02/17 04:54:40;0.00;0.00;0.62;0.00;0.00;0.62;2.90;2.43;;;23.80;28.90;;;;;;2263587;61;20437;-67
2024/02/17 04:57:24;0.00;0.00;0.62;0.00;0.00;0.62;2.37;1.90;;;23.80;29.00;;;;;;2263601;61;20444;-67
2024/02/17 05:00:10;0.00;0.00;0.62;0.00;0.00;0.62;2.60;2.10;;;23.80;28.90;;;;;;2263626;61;20380;-67
2024/02/17 05:02:54;0.00;0.00;0.62;0.00;0.00;0.62;2.77;2.00;;;23.80;29.00;;;;;;2263450;61;20432;-67
2024/02/17 05:05:39;0.00;0.00;0.62;0.00;0.00;0.62;3.00;2.00;;;23.80;29.00;;;;;;2263260;61;20383;-67
2024/02/17 05:08:24;0.00;0.00;0.62;0.00;0.00;0.62;2.73;1.80;;;23.80;29.00;;;;;;2263804;61;20855;-67
2024/02/17 05:11:10;0.00;0.00;0.62;0.00;0.00;0.62;3.10;1.70;;;23.80;29.00;;;;;;2263806;61;20379;-68
2024/02/17 05:13:54;0.00;0.00;0.62;0.00;0.00;0.62;2.60;2.10;;;23.80;29.00;;;;;;2263710;61;20453;-67
2024/02/17 05:16:39;0.00;0.00;0.62;0.00;0.00;0.62;2.60;2.00;;;23.80;29.00;;;;;;2263589;61;20359;-68
2024/02/17 05:19:23;0.00;0.00;0.62;0.00;0.00;0.62;2.60;2.07;;;23.80;29.00;;;;;;2263717;61;20897;-67
2024/02/17 05:22:08;0.00;0.00;0.62;0.00;0.00;0.62;3.20;1.93;;;23.80;29.00;;;;;;2263573;61;20476;-66
2024/02/17 05:24:53;0.00;0.00;0.62;0.00;0.00;0.62;2.77;2.13;;;23.80;29.00;;;;;;2263314;61;20922;-66
2024/02/17 05:27:40;0.00;0.00;0.62;0.00;0.00;0.62;2.33;1.90;;;23.80;29.00;;;;;;2263372;61;20414;-66
2024/02/17 05:30:25;0.00;0.00;0.62;0.00;0.00;0.62;2.73;1.70;;;23.80;29.00;;;;;;2263719;61;20445;-67
2024/02/17 05:33:09;0.00;0.00;0.62;0.00;0.00;0.62;2.70;1.80;;;23.80;28.90;;;;;;2263399;61;20549;-67
2024/02/17 05:35:54;0.00;0.00;0.62;0.00;0.00;0.62;2.97;1.80;;;23.80;29.00;;;;;;2263417;61;20364;-67
2024/02/17 05:38:39;0.00;0.00;0.62;0.00;0.00;0.62;2.80;1.93;;;23.80;29.00;;;;;;2263756;61;20367;-67
2024/02/17 05:41:24;0.00;0.00;0.62;0.00;0.00;0.62;2.60;1.77;;;23.70;28.90;;;;;;2263525;61;20379;-66
2024/02/17 05:44:10;0.00;0.00;0.62;0.00;0.00;0.62;2.37;1.63;;;23.80;29.00;;;;;;2263084;61;20404;-68
2024/02/17 05:46:55;0.00;0.00;0.62;0.00;0.00;0.62;3.00;1.90;;;23.80;29.00;;;;;;2263449;61;20376;-67
2024/02/17 05:49:40;0.00;0.00;0.62;0.00;0.00;0.62;2.90;2.30;;;23.80;29.00;;;;;;2262802;61;20367;-66
2024/02/17 05:52:24;0.00;0.00;0.62;0.00;0.00;0.62;2.77;1.93;;;23.80;28.90;;;;;;2263745;61;20438;-68
2024/02/17 05:55:09;0.00;0.00;0.62;0.00;0.00;0.62;2.60;2.00;;;23.80;29.00;;;;;;2263053;61;20845;-68
2024/02/17 05:57:54;0.00;0.00;0.62;0.00;0.00;0.62;2.07;1.50;;;23.70;28.90;;;;;;2263179;61;20368;-67
2024/02/17 06:00:40;0.00;0.00;0.62;0.00;0.00;0.62;3.17;1.70;;;23.80;28.90;;;;;;2263631;61;20415;-67
2024/02/17 06:03:25;0.00;0.00;0.62;0.00;0.00;0.62;2.30;1.70;;;23.80;29.00;;;;;;2263516;61;20380;-68
2024/02/17 06:06:10;0.00;0.00;0.62;0.00;0.00;0.62;2.63;1.80;;;23.80;29.00;;;;;;2263073;61;20360;-67
2024/02/17 06:08:55;0.00;0.00;0.62;0.00;0.00;0.62;1.93;1.50;;;23.80;29.00;;;;;;2263490;61;20372;-68
2024/02/17 06:11:39;0.00;0.00;0.62;0.00;0.00;0.62;2.67;1.70;;;23.80;29.00;;;;;;2263405;61;20494;-67
2024/02/17 06:14:24;0.00;0.00;0.62;0.00;0.00;0.62;3.00;2.13;;;23.70;28.90;;;;;;2263638;61;20441;-67
2024/02/17 06:17:10;0.00;0.00;0.62;0.00;0.00;0.62;1.93;1.40;;;23.70;28.90;;;;;;2263756;61;20364;-66
2024/02/17 06:22:58;0.00;0.00;0.62;0.00;0.00;0.62;1.83;1.43;;;23.70;28.90;;;;;;2263542;61;20423;-67
2024/02/17 06:25:43;0.00;0.00;0.62;0.00;0.00;0.62;2.20;1.60;;;23.70;28.90;;;;;;2263321;61;20442;-67
2024/02/17 06:28:27;0.00;0.00;0.62;0.00;0.00;0.62;2.20;1.70;;;23.70;28.90;;;;;;2263343;61;20922;-67
2024/02/17 06:31:12;0.00;0.00;0.62;0.00;0.00;0.62;2.20;1.70;;;23.70;28.90;;;;;;2264998;55;20446;-71
2024/02/17 06:33:57;0.00;0.00;0.62;0.00;0.00;0.62;2.40;1.87;;;23.70;28.90;;;;;;2259367;61;20986;-68
2024/02/17 06:36:42;0.00;0.00;0.62;0.00;0.00;0.62;2.00;1.40;;;23.70;28.90;;;;;;2260029;61;20358;-68
2024/02/17 06:39:27;0.00;0.00;0.62;0.00;0.00;0.62;2.93;1.57;;;23.70;28.90;;;;;;2260073;61;20352;-68
2024/02/17 06:42:12;0.00;0.00;0.62;0.00;0.00;0.62;2.73;1.50;;;23.70;28.90;;;;;;2259800;61;20912;-68
2024/02/17 06:44:56;0.00;0.00;0.62;0.00;0.00;0.62;2.33;1.57;;;23.70;28.90;;;;;;2259503;61;20444;-68
2024/02/17 06:47:41;0.00;0.00;0.62;0.00;0.00;0.62;1.70;1.20;;;23.70;28.90;;;;;;2259995;61;20384;-68
2024/02/17 06:50:27;0.00;0.00;0.62;0.00;0.00;0.62;2.20;1.63;;;23.70;28.90;;;;;;2260251;61;20412;-68
2024/02/17 06:53:11;0.00;0.00;0.62;0.00;0.00;0.62;2.83;1.60;;;23.70;29.50;;;;;;2261208;61;20361;-69
2024/02/17 06:55:56;0.00;0.00;0.62;0.00;0.00;0.62;2.33;1.47;;;23.70;28.90;;;;;;2260507;61;20361;-69
2024/02/17 06:58:41;0.00;0.00;0.62;0.00;0.00;0.62;1.70;1.23;;;23.70;28.90;;;;;;2261081;61;20456;-68
2024/02/17 07:01:26;0.00;0.00;0.62;0.00;0.00;0.62;2.50;1.57;;;23.70;28.90;;;;;;2261239;61;20472;-68
2024/02/17 07:04:10;0.00;0.00;0.62;0.00;0.00;0.62;2.47;1.67;;;23.70;29.40;;;;;;2260087;61;20923;-69
2024/02/17 07:06:56;0.00;0.00;0.62;0.00;0.00;0.62;1.87;1.30;;;23.70;28.90;;;;;;2260622;61;20361;-69
2024/02/17 07:09:41;0.00;0.00;0.62;0.00;0.00;0.62;2.50;1.40;;;23.70;28.90;;;;;;2260575;61;20768;-69
2024/02/17 07:12:25;0.00;0.00;0.62;0.00;0.00;0.62;1.70;1.13;;;23.70;28.90;;;;;;2260662;61;20381;-68
2024/02/17 07:15:10;0.00;0.00;0.62;0.00;0.00;0.62;1.80;1.33;;;23.70;28.90;;;;;;2260641;61;20357;-68
2024/02/17 07:17:56;0.00;0.00;0.62;0.00;0.00;0.62;1.97;1.40;;;23.70;28.90;;;;;;2260514;61;20393;-68
2024/02/17 07:20:41;0.00;0.00;0.62;0.00;0.00;0.62;2.00;1.47;;;23.70;28.90;;;;;;2260678;61;20389;-68
2024/02/17 07:23:30;0.00;0.00;0.62;0.00;0.00;0.62;3.60;1.57;;;23.70;28.90;;;;;;2259981;61;20361;-69
2024/02/17 07:26:15;0.00;0.00;0.62;0.00;0.00;0.62;1.70;1.10;;;23.70;28.90;;;;;;2260338;61;20361;-67
2024/02/17 07:28:59;0.00;0.00;0.62;0.00;0.00;0.62;1.83;1.23;;;23.70;28.90;;;;;;2260314;61;20380;-68
2024/02/17 07:31:44;0.00;0.00;0.62;0.00;0.00;0.62;1.87;1.10;;;23.70;28.90;;;;;;2260533;61;20396;-68
2024/02/17 07:34:31;0.00;0.00;0.62;0.00;0.00;0.62;1.93;1.30;;;23.70;28.90;;;;;;2260431;61;20381;-69
2024/02/17 07:37:18;0.00;0.00;0.62;0.00;0.00;0.62;2.67;1.57;;;23.70;28.90;;;;;;2260846;61;20424;-68
2024/02/17 07:40:08;0.00;0.00;0.62;0.00;0.00;0.62;2.07;1.50;;;23.70;28.90;;;;;;2260873;61;20799;-69
2024/02/17 07:42:53;0.00;0.00;0.62;0.00;0.00;0.62;2.50;1.63;;;23.70;28.90;;;;;;2260947;61;20944;-68
2024/02/17 07:45:37;0.00;0.00;0.62;0.00;0.00;0.62;2.53;1.93;;;23.70;28.90;;;;;;2260580;61;20911;-69
2024/02/17 07:48:22;0.00;0.00;0.62;0.00;0.00;0.62;2.67;1.80;;;23.70;28.90;;;;;;2260922;61;20493;-69
2024/02/17 07:51:06;0.00;0.00;0.62;0.00;0.00;0.62;2.70;2.07;;;23.70;28.90;;;;;;2260838;61;20726;-69
2024/02/17 07:53:51;0.00;0.00;0.62;0.00;0.00;0.62;3.20;2.27;;;23.70;28.90;;;;;;2260825;61;20433;-69
2024/02/17 07:56:37;0.00;0.00;0.62;0.00;0.00;0.62;2.90;1.97;;;23.70;28.90;;;;;;2260740;61;20365;-69
2024/02/17 07:59:21;0.00;0.00;0.62;0.00;0.00;0.62;2.83;2.20;;;23.70;28.90;;;;;;2260712;61;20358;-72
2024/02/17 08:02:06;0.00;0.00;0.62;0.00;0.00;0.62;4.00;2.47;;;23.70;28.90;;;;;;2260164;61;20845;-69
2024/02/17 08:04:53;0.00;0.00;0.62;0.00;0.00;0.62;3.50;2.90;;;23.70;28.90;;;;;;2259670;61;20954;-69
2024/02/17 08:07:38;0.00;0.00;0.62;0.00;0.00;0.62;4.70;3.73;;;23.70;28.90;;;;;;2260329;61;20365;-68
2024/02/17 08:10:23;0.00;0.00;0.62;0.00;0.00;0.62;3.20;2.80;;;23.70;28.90;;;;;;2259589;61;20467;-69
2024/02/17 08:13:09;0.00;0.00;0.62;0.00;0.00;0.62;4.40;3.10;;;23.70;28.90;;;;;;2260480;61;20889;-70
2024/02/17 08:15:53;0.00;0.00;0.62;0.00;0.00;0.62;3.97;3.37;;;23.70;28.90;;;;;;2260192;61;20419;-73
2024/02/17 08:18:44;0.00;0.00;0.62;0.00;0.00;0.62;4.40;3.43;;;23.70;28.90;;;;;;2260082;61;20356;-70
2024/02/17 08:21:30;0.00;0.00;0.62;0.00;0.00;0.62;4.13;3.43;;;23.70;28.90;;;;;;2260250;61;20486;-69
2024/02/17 08:24:15;0.00;0.00;0.62;0.00;0.00;0.62;4.50;3.30;;;23.70;28.90;;;;;;2259684;61;20443;-68
2024/02/17 08:26:59;0.00;0.00;0.62;0.00;0.00;0.62;3.97;3.23;;;23.70;28.90;;;;;;2260350;61;20380;-69
2024/02/17 08:29:46;0.00;0.00;0.62;0.00;0.00;0.62;3.77;3.00;;;23.70;28.90;;;;;;2260423;61;20407;-69
2024/02/17 08:32:32;0.00;0.00;0.62;0.00;0.00;0.62;4.27;3.50;;;23.70;29.50;;;;;;2259678;61;20352;-69
2024/02/17 08:35:16;0.00;0.00;0.62;0.00;0.00;0.62;4.53;3.77;;;23.70;28.90;;;;;;2259776;61;20775;-69
2024/02/17 08:38:01;0.00;0.00;0.62;0.00;0.00;0.62;5.20;3.67;;;23.70;28.90;;;;;;2260209;61;20451;-69
2024/02/17 08:40:45;0.00;0.00;0.62;0.00;0.00;0.62;4.73;3.70;;;23.70;28.90;;;;;;2260086;61;20436;-68
2024/02/17 08:43:30;0.00;0.00;0.62;0.00;0.00;0.62;4.90;4.20;;;23.70;28.90;;;;;;2260209;61;20372;-69
2024/02/17 08:46:16;0.00;0.00;0.62;0.00;0.00;0.62;5.27;4.00;;;23.70;28.90;;;;;;2260234;61;20372;-68
2024/02/17 08:49:00;0.00;0.00;0.62;0.00;0.00;0.62;5.07;4.10;;;23.70;28.90;;;;;;2260281;61;20419;-68
2024/02/17 08:51:45;0.00;0.00;0.62;0.00;0.00;0.62;6.30;4.07;;;23.70;28.90;;;;;;2260158;61;20400;-69
2024/02/17 08:54:30;0.00;0.00;0.62;0.00;0.00;0.62;6.20;4.40;;;23.70;28.90;;;;;;2259971;61;20882;-70
2024/02/17 08:57:14;0.00;0.00;0.62;0.00;0.00;0.62;5.47;4.50;;;23.70;28.90;;;;;;2260246;61;20403;-69
2024/02/17 09:00:01;0.00;0.00;0.62;0.00;0.00;0.62;6.27;4.80;;;23.70;28.90;;;;;;2260147;61;20487;-69
2024/02/17 09:02:47;0.00;0.00;0.62;0.00;0.00;0.62;5.00;4.37;;;23.70;28.90;;;;;;2260156;61;20415;-69
2024/02/17 09:05:32;0.00;0.00;0.62;0.00;0.00;0.62;5.47;4.80;;;23.70;28.90;;;;;;2260006;61;20609;-69
2024/02/17 09:08:16;0.00;0.00;0.62;0.00;0.00;0.62;5.27;4.63;;;23.70;28.90;;;;;;2259855;61;20381;-69
2024/02/17 09:11:01;0.00;0.00;0.62;0.00;0.00;0.62;5.67;5.00;;;23.70;28.90;;;;;;2260032;61;20956;-69
2024/02/17 09:13:48;0.00;0.00;0.62;0.00;0.00;0.62;5.87;4.77;;;23.70;28.90;;;;;;2259719;61;20434;-69
2024/02/17 09:16:33;0.00;0.00;0.62;0.00;0.00;0.62;7.70;5.70;;;23.70;28.90;;;;;;2260160;61;20799;-69
2024/02/17 09:19:19;0.00;0.00;0.62;0.00;0.00;0.62;6.60;4.77;;;23.70;28.90;;;;;;2260126;61;20903;-70
2024/02/17 09:22:04;0.00;0.00;0.62;0.00;0.00;0.62;4.60;4.20;;;23.70;28.80;;;;;;2259625;61;20436;-69
2024/02/17 09:24:49;0.00;0.00;0.62;0.00;0.00;0.62;5.30;4.33;;;23.70;28.90;;;;;;2259722;61;20424;-69
2024/02/17 09:27:33;0.00;0.00;0.62;0.00;0.00;0.62;5.63;4.93;;;23.70;28.80;;;;;;2260108;61;20496;-69
2024/02/17 09:30:19;0.00;0.00;0.62;0.00;0.00;0.62;5.40;4.30;;;23.70;28.80;;;;;;2259962;61;20389;-69
2024/02/17 09:33:03;0.00;0.00;0.62;0.00;0.00;0.62;7.90;4.97;;;23.70;28.80;;;;;;2260301;61;20373;-69
2024/02/17 09:35:49;0.00;0.00;0.62;0.00;0.00;0.62;6.10;4.80;;;23.70;28.80;;;;;;2259751;61;20353;-68
2024/02/17 09:38:34;0.00;0.00;0.62;0.00;0.00;0.62;7.70;4.33;;;23.70;28.80;;;;;;2259979;61;20365;-70
2024/02/17 09:41:19;0.00;0.00;0.62;0.00;0.00;0.62;5.80;4.50;;;23.70;28.80;;;;;;2259741;61;20416;-69
2024/02/17 09:44:04;0.00;0.00;0.62;0.00;0.00;0.62;6.33;4.40;;;23.70;28.90;;;;;;2260092;61;20368;-69
2024/02/17 09:46:52;0.00;0.00;0.62;0.00;0.00;0.62;5.70;4.40;;;23.70;28.80;;;;;;2259880;61;20361;-69
2024/02/17 09:49:38;0.00;0.00;0.62;0.00;0.00;0.62;6.10;4.60;;;23.70;28.80;;;;;;2260369;61;20451;-69
2024/02/17 09:52:25;0.00;0.00;0.62;0.00;0.00;0.62;7.53;4.97;;;23.70;28.80;;;;;;2260327;61;20400;-69
2024/02/17 09:55:10;0.00;0.00;0.62;0.00;0.00;0.62;5.70;4.13;;;23.70;28.80;;;;;;2259819;61;20380;-69
2024/02/17 09:57:55;0.00;0.00;0.62;0.00;0.00;0.62;4.50;4.00;;;23.70;28.80;;;;;;2260189;61;20896;-70
2024/02/17 10:00:40;0.00;0.00;0.62;0.00;0.00;0.62;5.67;4.27;;;23.70;28.80;;;;;;2260553;61;20931;-69
2024/02/17 10:03:25;0.00;0.00;0.62;0.00;0.00;0.62;6.07;4.23;;;23.70;28.80;;;;;;2260265;61;20396;-69
2024/02/17 10:06:11;0.00;0.00;0.62;0.00;0.00;0.62;4.60;4.10;;;23.70;28.80;;;;;;2260178;61;20405;-69
2024/02/17 10:08:57;0.00;0.00;0.62;0.00;0.00;0.62;4.63;3.87;;;23.70;28.80;;;;;;2261166;61;20356;-69
2024/02/17 10:11:42;0.00;0.00;0.62;0.00;0.00;0.62;4.43;3.40;;;23.70;28.80;;;;;;2261924;61;20924;-69
2024/02/17 10:14:27;0.00;0.00;0.62;0.00;0.00;0.62;5.60;4.40;;;23.70;28.80;;;;;;2262808;61;20374;-69
2024/02/17 10:17:13;0.00;0.00;0.62;0.00;0.00;0.62;5.17;4.37;;;23.70;28.80;;;;;;2263288;61;20372;-69
2024/02/17 10:19:57;0.00;0.00;0.62;0.00;0.00;0.62;5.27;4.17;;;23.80;28.90;;;;;;2263037;61;20360;-69
2024/02/17 10:22:43;0.00;0.00;0.62;0.00;0.00;0.62;6.30;4.40;;;23.80;28.90;;;;;;2262814;61;20408;-68
2024/02/17 10:25:29;0.00;0.00;0.62;0.00;0.00;0.62;6.00;4.50;;;23.80;28.90;;;;;;2262530;61;20419;-69
2024/02/17 10:28:14;0.00;0.00;0.62;0.00;0.00;0.62;6.10;4.30;;;23.80;28.90;;;;;;2263374;61;20373;-69
2024/02/17 10:31:03;0.00;0.00;0.62;0.00;0.00;0.62;6.23;5.00;;;23.80;28.90;;;;;;2262808;61;20400;-69
2024/02/17 10:33:49;0.00;0.00;0.62;0.00;0.00;0.62;6.10;5.47;;;23.80;28.80;;;;;;2262270;61;20430;-76
2024/02/17 10:36:33;0.00;0.00;0.62;0.00;0.00;0.62;6.20;5.60;;;23.80;28.80;;;;;;2262971;61;20357;-69
2024/02/17 10:39:20;0.00;0.00;0.62;0.00;0.00;0.62;6.20;4.73;;;23.80;28.80;;;;;;2262100;61;20892;-70
2024/02/17 10:42:06;0.00;0.00;0.62;0.00;0.00;0.62;6.37;5.03;;;23.80;28.80;;;;;;2262003;61;20677;-67
2024/02/17 10:44:51;0.00;0.00;0.62;0.00;0.00;0.62;5.60;4.67;;;23.80;28.80;;;;;;2260716;61;20385;-69
2024/02/17 10:47:37;0.00;0.00;0.62;0.00;0.00;0.62;7.53;6.03;;;23.80;28.80;;;;;;2260793;61;20361;-69
2024/02/17 10:50:22;0.00;0.00;0.62;0.00;0.00;0.62;7.50;6.20;;;23.80;28.80;;;;;;2261085;61;20591;-69
2024/02/17 10:53:26;0.00;0.00;0.62;0.00;0.00;0.62;7.07;5.70;;;23.80;28.80;;;;;;2261219;61;20365;-69